Time;durP1;ratioP1;P1;durP2;ratioP2;P2;SDS_P1;SDS_P2;PMS_P1;PMS_P2;Temp;Humidity;BMP_temperature;BMP_pressure;BME280_temperature;BME280_humidity;BME280_pressure;Samples;Min_cycle;Max_cycle;Signal;HPM_P1;HPM_P2
2021/12/03 00:03:33;;;;;;;;;;;0.70;99.90;;;;;;10371570;28;84843;-50
2021/12/03 00:08:33;;;;;;;;;;;0.70;99.90;;;;;;10370419;28;84889;-52
2021/12/03 00:13:34;;;;;;;;;;;0.70;99.90;;;;;;10371628;28;84802;-54
2021/12/03 00:18:35;;;;;;;;;;;0.80;99.90;;;;;;10370640;28;84945;-55
2021/12/03 00:23:36;;;;;;;;;;;0.80;99.90;;;;;;10370616;28;84934;-51
2021/12/03 00:28:37;;;;;;;;;;;0.90;99.90;;;;;;10370178;28;84323;-51
2021/12/03 00:33:38;;;;;;;;;;;1.00;99.90;;;;;;10370242;28;84823;-53
2021/12/03 00:38:40;;;;;;;;;;;1.00;99.90;;;;;;10370033;28;84607;-53
2021/12/03 00:43:46;;;;;;;;;;;1.10;99.90;;;;;;10369852;28;85085;-51
2021/12/03 00:48:48;;;;;;;;;;;1.00;99.90;;;;;;10369180;28;84020;-54
2021/12/03 00:53:48;;;;;;;;;;;0.90;99.90;;;;;;10369709;28;84040;-53
2021/12/03 00:58:49;;;;;;;;;;;1.00;99.90;;;;;;10369624;28;84057;-53
2021/12/03 01:03:49;;;;;;;;;;;0.80;99.90;;;;;;10368181;28;84981;-52
2021/12/03 01:08:50;;;;;;;;;;;0.90;99.90;;;;;;10368956;28;84878;-54
2021/12/03 01:13:51;;;;;;;;;;;0.80;99.90;;;;;;10368940;28;84341;-53
2021/12/03 01:18:51;;;;;;;;;;;0.80;99.90;;;;;;10368952;28;84403;-50
2021/12/03 01:23:52;;;;;;;;;;;1.00;99.90;;;;;;10368350;28;84858;-53
2021/12/03 01:28:53;;;;;;;;;;;1.00;99.90;;;;;;10368881;28;84063;-51
2021/12/03 01:33:53;;;;;;;;;;;1.10;99.90;;;;;;10366856;28;86820;-53
2021/12/03 01:38:54;;;;;;;;;;;1.20;99.90;;;;;;10368975;28;84191;-54
2021/12/03 01:44:01;;;;;;;;;;;1.20;99.90;;;;;;10369340;28;84365;-55
2021/12/03 01:49:02;;;;;;;;;;;1.20;99.90;;;;;;10368534;28;84148;-52
2021/12/03 01:54:03;;;;;;;;;;;1.20;99.90;;;;;;10368087;28;85218;-49
2021/12/03 01:59:04;;;;;;;;;;;1.10;99.90;;;;;;10367283;28;84698;-54
2021/12/03 02:04:04;;;;;;;;;;;1.10;99.90;;;;;;10365823;28;84875;-52
2021/12/03 02:09:06;;;;;;;;;;;1.20;99.90;;;;;;10366330;28;85067;-51
2021/12/03 02:14:06;;;;;;;;;;;1.20;99.90;;;;;;10372209;28;84797;-53
2021/12/03 02:19:07;;;;;;;;;;;1.30;99.90;;;;;;10374367;28;84147;-54
2021/12/03 02:24:07;;;;;;;;;;;1.40;99.90;;;;;;10374615;28;84758;-51
2021/12/03 02:29:08;;;;;;;;;;;1.40;99.90;;;;;;10374739;28;84032;-54
2021/12/03 02:34:09;;;;;;;;;;;1.40;99.90;;;;;;10374285;28;84843;-52
2021/12/03 02:39:09;;;;;;;;;;;1.40;99.90;;;;;;10373972;28;84093;-54
2021/12/03 02:44:10;;;;;;;;;;;1.30;99.90;;;;;;10373831;28;84843;-54
2021/12/03 02:49:14;;;;;;;;;;;1.30;99.90;;;;;;10389183;28;85395;-53
2021/12/03 02:54:14;;;;;;;;;;;1.30;99.90;;;;;;10373886;28;84514;-50
2021/12/03 02:59:15;;;;;;;;;;;1.30;99.90;;;;;;10373079;28;84198;-56
2021/12/03 03:04:15;;;;;;;;;;;1.30;99.90;;;;;;10372495;28;84103;-50
2021/12/03 03:09:16;;;;;;;;;;;1.30;99.90;;;;;;10372728;28;84131;-54
2021/12/03 03:14:17;;;;;;;;;;;1.30;99.90;;;;;;10372687;28;84752;-53
2021/12/03 03:19:19;;;;;;;;;;;1.30;99.90;;;;;;10373187;28;85323;-49
2021/12/03 03:24:21;;;;;;;;;;;1.30;99.90;;;;;;10369944;28;84857;-53
2021/12/03 03:29:22;;;;;;;;;;;1.40;99.90;;;;;;10372047;28;84232;-51
2021/12/03 03:34:22;;;;;;;;;;;1.40;99.90;;;;;;10373116;28;84384;-50
2021/12/03 03:39:23;;;;;;;;;;;1.50;99.90;;;;;;10371527;28;85194;-54
2021/12/03 03:44:24;;;;;;;;;;;1.70;99.90;;;;;;10372132;28;85362;-54
2021/12/03 03:49:24;;;;;;;;;;;1.70;99.90;;;;;;10371675;28;84328;-53
2021/12/03 03:54:25;;;;;;;;;;;1.80;99.90;;;;;;10371674;28;85121;-52
2021/12/03 03:59:26;;;;;;;;;;;1.90;99.90;;;;;;10372144;28;84252;-53
2021/12/03 04:04:26;;;;;;;;;;;1.80;99.90;;;;;;10355320;22;85782;-55
2021/12/03 04:09:27;;;;;;;;;;;1.90;99.90;;;;;;10327595;28;84948;-56
2021/12/03 04:14:27;;;;;;;;;;;1.90;99.90;;;;;;10325304;28;84917;-53
2021/12/03 04:19:28;;;;;;;;;;;1.90;99.90;;;;;;10327486;28;84824;-50
2021/12/03 04:24:28;;;;;;;;;;;1.90;99.90;;;;;;10330021;28;86031;-52
2021/12/03 04:29:29;;;;;;;;;;;1.90;99.90;;;;;;10327798;28;84139;-51
2021/12/03 04:34:29;;;;;;;;;;;1.90;99.90;;;;;;10327572;28;84521;-53
2021/12/03 04:39:30;;;;;;;;;;;1.90;99.90;;;;;;10309543;28;85856;-55
2021/12/03 04:44:33;;;;;;;;;;;2.00;99.90;;;;;;10325805;28;84883;-55
2021/12/03 04:49:34;;;;;;;;;;;2.00;99.90;;;;;;10327213;28;84922;-52
2021/12/03 04:54:34;;;;;;;;;;;2.00;99.90;;;;;;10326844;28;85378;-53
2021/12/03 04:59:35;;;;;;;;;;;2.00;99.90;;;;;;10327843;28;84318;-53
2021/12/03 05:04:38;;;;;;;;;;;2.00;99.90;;;;;;10327313;28;84703;-54
2021/12/03 05:09:38;;;;;;;;;;;1.90;99.90;;;;;;10327537;28;84812;-52
2021/12/03 05:14:39;;;;;;;;;;;2.00;99.90;;;;;;10314790;28;86971;-54
2021/12/03 05:19:39;;;;;;;;;;;1.90;99.90;;;;;;10307670;28;85070;-52
2021/12/03 05:24:42;;;;;;;;;;;1.90;99.90;;;;;;10306629;28;84906;-51
2021/12/03 05:29:43;;;;;;;;;;;2.00;99.90;;;;;;10311636;28;84161;-53
2021/12/03 05:34:44;;;;;;;;;;;2.00;99.90;;;;;;10327642;28;84132;-54
2021/12/03 05:39:44;;;;;;;;;;;2.00;99.90;;;;;;10327171;28;84850;-53
2021/12/03 05:44:45;;;;;;;;;;;2.00;99.90;;;;;;10315892;28;84900;-53
2021/12/03 05:49:46;;;;;;;;;;;2.00;99.90;;;;;;10315211;28;84830;-55
2021/12/03 05:54:46;;;;;;;;;;;2.00;99.90;;;;;;10311593;28;84837;-53
2021/12/03 05:59:47;;;;;;;;;;;2.00;99.90;;;;;;10332451;28;84863;-51
2021/12/03 06:04:48;;;;;;;;;;;2.00;99.90;;;;;;10332216;28;84290;-53
2021/12/03 06:09:48;;;;;;;;;;;2.10;99.90;;;;;;10330569;28;85634;-50
2021/12/03 06:14:49;;;;;;;;;;;2.20;99.90;;;;;;10319900;28;84821;-59
2021/12/03 06:19:50;;;;;;;;;;;2.30;99.90;;;;;;10332630;28;84158;-55
2021/12/03 06:24:50;;;;;;;;;;;2.30;99.90;;;;;;10330888;28;84961;-55
2021/12/03 06:29:51;;;;;;;;;;;2.40;99.90;;;;;;10330299;28;84285;-55
2021/12/03 06:34:52;;;;;;;;;;;2.40;99.90;;;;;;10333066;28;85006;-55
2021/12/03 06:39:53;;;;;;;;;;;2.40;99.90;;;;;;10332151;28;83957;-55
2021/12/03 06:44:53;;;;;;;;;;;2.40;99.90;;;;;;10327497;28;84957;-49
2021/12/03 06:49:54;;;;;;;;;;;2.40;99.90;;;;;;10328736;28;84062;-48
2021/12/03 06:55:01;;;;;;;;;;;2.40;99.90;;;;;;10329170;28;84199;-54
2021/12/03 07:00:04;;;;;;;;;;;2.40;99.90;;;;;;10323312;28;85190;-55
2021/12/03 07:05:06;;;;;;;;;;;2.50;99.90;;;;;;10330961;28;85213;-55
2021/12/03 07:10:07;;;;;;;;;;;2.50;99.90;;;;;;10331499;28;84431;-51
2021/12/03 07:15:08;;;;;;;;;;;2.60;99.90;;;;;;10324802;28;84350;-54
2021/12/03 07:20:09;;;;;;;;;;;2.60;99.90;;;;;;10324148;28;84277;-57
2021/12/03 07:25:10;;;;;;;;;;;2.60;99.90;;;;;;10325354;28;85952;-51
2021/12/03 07:30:13;;;;;;;;;;;2.80;99.90;;;;;;10328432;28;84553;-52
2021/12/03 07:35:13;;;;;;;;;;;2.80;99.90;;;;;;10327982;28;85876;-52
2021/12/03 07:40:14;;;;;;;;;;;2.70;99.90;;;;;;10315709;28;85913;-50
2021/12/03 07:45:16;;;;;;;;;;;2.80;99.90;;;;;;10289490;28;84737;-50
2021/12/03 07:50:17;;;;;;;;;;;2.80;99.90;;;;;;10313154;28;84219;-52
2021/12/03 07:55:18;;;;;;;;;;;2.80;99.90;;;;;;10326182;28;85914;-53
2021/12/03 08:00:18;;;;;;;;;;;2.90;99.90;;;;;;10325121;28;85212;-54
2021/12/03 08:05:19;;;;;;;;;;;2.90;99.90;;;;;;10330426;28;84340;-54
2021/12/03 08:10:19;;;;;;;;;;;2.70;99.90;;;;;;10329537;28;84864;-50
2021/12/03 08:15:20;;;;;;;;;;;2.80;99.90;;;;;;10331573;28;85016;-53
2021/12/03 08:20:20;;;;;;;;;;;2.80;99.90;;;;;;10328313;28;85105;-50
2021/12/03 08:25:21;;;;;;;;;;;2.80;99.90;;;;;;10329798;28;84830;-51
2021/12/03 08:30:22;;;;;;;;;;;2.80;99.90;;;;;;10330143;28;84101;-50
2021/12/03 08:35:22;;;;;;;;;;;2.80;99.90;;;;;;10330355;28;84298;-50
2021/12/03 08:40:23;;;;;;;;;;;2.90;99.90;;;;;;10333055;28;84305;-49
2021/12/03 08:45:25;;;;;;;;;;;3.10;99.90;;;;;;10330152;28;85004;-52
2021/12/03 08:50:48;;;;;;;;;;;3.10;99.90;;;;;;10324796;28;84685;-54
2021/12/03 08:55:49;;;;;;;;;;;3.00;99.90;;;;;;10331789;28;84160;-52
2021/12/03 09:00:49;;;;;;;;;;;3.00;99.90;;;;;;10329102;28;84093;-52
2021/12/03 09:05:50;;;;;;;;;;;3.10;99.90;;;;;;10332773;28;84040;-56
2021/12/03 09:10:50;;;;;;;;;;;3.20;99.90;;;;;;10315693;28;86805;-55
2021/12/03 09:16:01;;;;;;;;;;;3.30;99.90;;;;;;10332136;28;85075;-51
2021/12/03 09:26:07;;;;;;;;;;;3.50;99.90;;;;;;10294335;28;84785;-56
2021/12/03 09:31:10;;;;;;;;;;;3.50;99.90;;;;;;10318151;28;84410;-58
2021/12/03 09:36:11;;;;;;;;;;;3.50;99.90;;;;;;10335913;28;83973;-53
2021/12/03 09:41:13;;;;;;;;;;;3.60;99.90;;;;;;10333298;28;84164;-56
2021/12/03 09:46:16;;;;;;;;;;;3.60;99.90;;;;;;10295740;28;85145;-54
2021/12/03 09:51:17;;;;;;;;;;;3.70;99.90;;;;;;10316064;28;84684;-51
2021/12/03 09:56:18;;;;;;;;;;;3.60;99.90;;;;;;10309912;28;84655;-55
2021/12/03 10:01:28;;;;;;;;;;;3.60;99.90;;;;;;10296666;22;86672;-61
2021/12/03 10:12:11;;;;;;;;;;;3.70;99.90;;;;;;10332667;28;87106;-61
2021/12/03 10:38:47;;;;;;;;;;;4.00;99.90;;;;;;10295858;28;84914;-59
2021/12/03 10:49:07;;;;;;;;;;;4.00;99.90;;;;;;10328902;28;85232;-62
2021/12/03 10:54:19;;;;;;;;;;;4.00;99.90;;;;;;10333666;28;83980;-58
2021/12/03 11:26:48;;;;;;;;;;;4.70;99.90;;;;;;10291180;28;84940;-57
2021/12/03 12:14:56;;;;;;;;;;;4.70;99.90;;;;;;10289120;28;85206;-52
2021/12/03 12:40:38;;;;;;;;;;;4.60;99.90;;;;;;10288716;28;85427;-50
2021/12/03 13:18:03;;;;;;;;;;;4.40;99.90;;;;;;10328081;28;84129;-53
2021/12/03 14:52:30;;;;;;;;;;;5.00;99.90;;;;;;10305270;28;85040;-55
2021/12/03 15:07:44;;;;;;;;;;;5.00;99.90;;;;;;10323833;28;84242;-56
2021/12/03 15:13:08;;;;;;;;;;;4.90;99.90;;;;;;10324412;28;84291;-59
2021/12/03 15:23:36;;;;;;;;;;;5.00;99.90;;;;;;10324678;28;86305;-60
2021/12/03 15:33:57;;;;;;;;;;;5.00;99.90;;;;;;10327030;28;84885;-52
2021/12/03 15:39:22;;;;;;;;;;;5.00;99.90;;;;;;10326433;28;84873;-55
2021/12/03 16:11:00;;;;;;;;;;;4.50;99.90;;;;;;10333517;28;84885;-56
2021/12/03 16:16:34;;;;;;;;;;;4.40;99.90;;;;;;10335623;28;84025;-59
2021/12/03 16:26:52;;;;;;;;;;;4.20;99.90;;;;;;10331582;28;84245;-52
2021/12/03 16:53:29;;;;;;;;;;;3.70;99.90;;;;;;10296705;28;86682;-57
2021/12/03 16:58:30;;;;;;;;;;;3.60;99.90;;;;;;10302360;28;85547;-52
2021/12/03 17:14:05;;;;;;;;;;;3.70;99.90;;;;;;10321235;28;86063;-54
2021/12/03 18:00:47;;;;;;;;;;;3.70;99.90;;;;;;10320004;28;84815;-65
2021/12/03 18:53:03;;;;;;;;;;;3.90;99.90;;;;;;10365770;28;85374;-54
2021/12/03 18:58:05;;;;;;;;;;;3.90;99.90;;;;;;10359248;28;84828;-57
2021/12/03 19:03:32;;;;;;;;;;;4.00;99.90;;;;;;10365909;28;86110;-60
2021/12/03 19:13:38;;;;;;;;;;;4.00;99.90;;;;;;10386311;28;86848;-61
2021/12/03 19:18:44;;;;;;;;;;;4.10;99.90;;;;;;10370273;28;84926;-60
2021/12/03 19:23:45;;;;;;;;;;;4.10;99.90;;;;;;10370768;28;84173;-63
2021/12/03 19:28:46;;;;;;;;;;;4.10;99.90;;;;;;10352812;28;85431;-57
2021/12/03 19:33:46;;;;;;;;;;;4.20;99.90;;;;;;10343702;28;85975;-63
2021/12/03 19:38:48;;;;;;;;;;;4.20;99.90;;;;;;10326453;28;86969;-55
2021/12/03 19:43:54;;;;;;;;;;;4.20;99.90;;;;;;10363546;28;84276;-57
2021/12/03 19:53:59;;;;;;;;;;;4.30;99.90;;;;;;10371394;28;85195;-62
2021/12/03 19:59:00;;;;;;;;;;;4.30;99.90;;;;;;10374476;28;84148;-64
2021/12/03 20:04:01;;;;;;;;;;;4.40;99.90;;;;;;10367561;28;85082;-60
2021/12/03 20:09:03;;;;;;;;;;;4.40;99.90;;;;;;10366556;28;84947;-60
2021/12/03 20:14:06;;;;;;;;;;;4.40;99.90;;;;;;10368593;28;84927;-58
2021/12/03 20:19:20;;;;;;;;;;;4.40;99.90;;;;;;10368662;28;84147;-62
2021/12/03 20:40:07;;;;;;;;;;;4.40;99.90;;;;;;10365395;28;84773;-61
2021/12/03 21:11:43;;;;;;;;;;;4.30;99.90;;;;;;10364854;28;86278;-64
2021/12/03 21:22:23;;;;;;;;;;;4.40;99.90;;;;;;10335542;28;84933;-63
2021/12/03 21:27:31;;;;;;;;;;;4.50;99.90;;;;;;10365062;28;84264;-56
2021/12/03 21:32:44;;;;;;;;;;;4.50;99.90;;;;;;10361718;28;85621;-58
2021/12/03 21:43:04;;;;;;;;;;;4.50;99.90;;;;;;10364534;28;85316;-55
2021/12/03 21:48:04;;;;;;;;;;;4.50;99.90;;;;;;10366149;28;84904;-51
2021/12/03 21:53:06;;;;;;;;;;;4.40;99.90;;;;;;10366351;28;84792;-56
2021/12/03 21:58:06;;;;;;;;;;;4.40;99.90;;;;;;10364089;28;86030;-54
2021/12/03 22:03:07;;;;;;;;;;;4.30;99.90;;;;;;10365873;28;84102;-49
2021/12/03 22:08:10;;;;;;;;;;;4.30;99.90;;;;;;10351579;28;85623;-55
2021/12/03 22:13:11;;;;;;;;;;;4.20;99.90;;;;;;10364309;28;85027;-55
2021/12/03 22:18:11;;;;;;;;;;;4.20;99.90;;;;;;10366428;28;84957;-58
2021/12/03 22:23:12;;;;;;;;;;;4.10;99.90;;;;;;10346077;28;84391;-55
2021/12/03 22:28:12;;;;;;;;;;;4.20;99.90;;;;;;10341393;28;84116;-52
2021/12/03 22:33:13;;;;;;;;;;;4.20;99.90;;;;;;10350386;28;86301;-56
2021/12/03 22:38:14;;;;;;;;;;;4.20;99.90;;;;;;10374578;28;84206;-56
2021/12/03 22:43:15;;;;;;;;;;;4.20;99.90;;;;;;10372528;28;84298;-57
2021/12/03 22:53:24;;;;;;;;;;;4.20;99.90;;;;;;10372946;28;84124;-53
2021/12/03 22:58:24;;;;;;;;;;;4.20;99.90;;;;;;10372248;28;84159;-52
2021/12/03 23:03:25;;;;;;;;;;;4.10;99.90;;;;;;10370534;28;84748;-55
2021/12/03 23:08:26;;;;;;;;;;;4.20;99.90;;;;;;10370323;28;85871;-58
2021/12/03 23:13:27;;;;;;;;;;;4.20;99.90;;;;;;10371779;28;84054;-57
2021/12/03 23:18:28;;;;;;;;;;;4.10;99.90;;;;;;10371267;28;85034;-57
2021/12/03 23:23:29;;;;;;;;;;;4.20;99.90;;;;;;10367306;28;84955;-55
2021/12/03 23:28:31;;;;;;;;;;;4.30;99.90;;;;;;10369085;28;84199;-56
2021/12/03 23:33:33;;;;;;;;;;;4.30;99.90;;;;;;10370418;28;84842;-55
2021/12/03 23:38:34;;;;;;;;;;;4.30;99.90;;;;;;10370957;28;84817;-55
2021/12/03 23:43:35;;;;;;;;;;;4.40;99.90;;;;;;10369607;28;84744;-55
2021/12/03 23:48:35;;;;;;;;;;;4.30;99.90;;;;;;10371754;28;85081;-54
2021/12/03 23:53:36;;;;;;;;;;;4.40;99.90;;;;;;10371302;28;84132;-55
2021/12/03 23:58:39;;;;;;;;;;;4.40;99.90;;;;;;10370048;28;86853;-56
